Graceful Lady — 00 — position and weather

sailwx.info

Track history (hours):
 
Tides and Currents Weather Stations Pressure Air Temp Water Temp Dewpoint Dewpoint Depression Visibility Wind Speed Wind Dir Waves Ship Positions

Graceful Lady

Last reported at 2016-May-26 04:32 UTC. Time now 2016-May-26 04:42 UTC.
Position N 23°06' E 113°27'.

Length 6 m.

Type: Pollution control. MMSI: 316014038.

Date/timePositionNaut miles runAvg speedWind from/ knotsBaromVisibWave heightAir tempDewpointWater temp
2016-May-26 04:32N 23°06' E 113°27'65925500.6
2016-May-26 04:31N 31°31' E 121°23'0 0.1
2016-May-26 03:33N 31°31' E 121°23'659139517.8
2016-May-26 03:33N 23°06' E 113°27'2551682.1
2016-May-26 03:24N 24°25' E 117°52'465546.8
2016-May-26 02:33N 31°31' E 121°23'65942353.9
2016-May-26 02:32N 23°06' E 113°27'659668.7
2016-May-26 01:33N 31°31' E 121°23'659182447.7
2016-May-26 01:33N 23°06' E 113°27'0 0.0
2016-May-26 00:34N 23°06' E 113°27'65911294.4
2016-May-26 00:30N 31°31' E 121°23'101542.1
2016-May-26 00:19N 29°54' E 121°59'39630299.5
2016-May-26 00:18N 24°25' E 117°52'255342.1
2016-May-25 23:33N 23°06' E 113°27'659169415.7
2016-May-25 23:33N 31°31' E 121°23'101736.6
2016-May-25 23:25N 29°54' E 121°59'3961859.1
2016-May-25 23:12N 24°25' E 117°52'465715.1
2016-May-25 22:33N 31°31' E 121°23'65991225.7
2016-May-25 22:33N 23°06' E 113°27'659664.0
2016-May-25 21:33N 31°31' E 121°23'6592957.3
2016-May-25 21:20N 23°06' E 113°27'61440918.4
2016-May-25 21:19N 29°54' E 121°59'614810.3
2016-May-25 20:33N 23°06' E 113°27'659131766.3
2016-May-25 20:33N 31°31' E 121°23'102738.5
2016-May-25 20:25N 29°54' E 121°59'102117.7
2016-May-25 19:33N 31°31' E 121°23'659112943.3
2016-May-25 19:33N 23°06' E 113°27'2551746.1
2016-May-25 19:24N 24°25' E 117°52'255302.7
2016-May-25 18:33N 23°06' E 113°27'659131766.3
2016-May-25 18:33N 31°31' E 121°23'4658757.7
2016-May-25 18:30N 24°25' E 117°52'3964684.5
2016-May-25 18:25N 29°54' E 121°59'614713.9
2016-May-25 17:33N 23°06' E 113°27'659215617.5
2016-May-25 17:33N 31°31' E 121°23'4658757.7
2016-May-25 17:30N 24°25' E 117°52'255271.9
2016-May-25 16:34N 23°06' E 113°27'65984707.5
2016-May-25 16:33N 31°31' E 121°23'4658578.0
2016-May-25 16:30N 24°25' E 117°52'3964669.1
2016-May-25 16:25N 29°54' E 121°59'102117.9
2016-May-25 15:33N 31°31' E 121°23'65945630.5
2016-May-25 15:32N 23°06' E 113°26'61425411.4
2016-May-25 15:31N 29°54' E 121°59'614640.3
2016-May-25 14:33N 23°06' E 113°26'659296594.0
2016-May-25 14:33N 31°31' E 121°23'0 0.0
2016-May-25 13:33N 31°31' E 121°23'65926660.1
2016-May-25 13:32N 23°06' E 113°26'6142886.1
2016-May-25 13:19N 29°54' E 121°59'102133.2
2016-May-25 12:33N 31°31' E 121°23'102736.9
2016-May-25 12:25N 29°54' E 121°59'61439478.7
2016-May-25 12:24N 23°06' E 113°26'0 0.0
2016-May-25 11:33N 23°06' E 113°26'659263646.4
2016-May-25 11:33N 31°31' E 121°23'102232.2
2016-May-25 11:07N 29°54' E 121°59'6141108.2
2016-May-25 10:34N 23°06' E 113°26'61413318.1
2016-May-25 10:31N 29°54' E 121°59'1028703.1
2016-May-25 10:30N 31°31' E 121°23'659695.0
2016-May-25 09:33N 23°06' E 113°26'659395458.7
2016-May-25 09:33N 31°31' E 121°23'0 0.0
2016-May-25 08:33N 31°31' E 121°23'4652950.0
2016-May-25 08:24N 24°25' E 117°52'465551.5
2016-May-25 07:33N 31°31' E 121°23'6598597.1
2016-May-25 07:28N 23°06' E 113°26'6141698.0
2016-May-25 07:07N 29°54' E 121°59'102180.7
2016-May-25 06:33N 31°31' E 121°23'66026694.8
2016-May-25 06:32N 23°01' E 113°31'61444215.5
2016-May-25 06:31N 29°54' E 121°59'39620057.7
2016-May-25 06:30N 24°25' E 117°52'465493.1
2016-May-25 05:33N 31°31' E 121°23'0 0.0
2016-May-25 04:24N 31°31' E 121°23'4654234.4
2016-May-25 04:17N 24°25' E 117°52'3965032.1
2016-May-25 04:13N 29°54' E 121°59'102153.2
2016-May-25 03:33N 31°31' E 121°23'4657889.6
2016-May-25 03:29N 24°25' E 117°52'4638418.1
2016-May-25 03:26N 31°23' E 121°37'0 0.1
2016-May-25 02:33N 31°23' E 121°37'144973.2
2016-May-25 02:33N 31°31' E 121°23'4651294.6
2016-May-25 02:11N 24°25' E 117°52'465725.6
2016-May-25 01:33N 31°31' E 121°23'14534.6
2016-May-25 01:32N 31°23' E 121°37'91807.8
2016-May-25 01:25N 29°54' E 121°59'91106.9
2016-May-25 00:34N 31°23' E 121°37'141912.8
2016-May-25 00:33N 31°31' E 121°23'0 0.0
2016-May-24 23:33N 31°31' E 121°23'14700.5
2016-May-24 23:32N 31°23' E 121°37'46311654.8
2016-May-24 23:29N 24°25' E 117°52'3961044.0
2016-May-24 23:07N 29°54' E 121°59'102180.8
2016-May-24 22:33N 31°31' E 121°23'14376.6
2016-May-24 22:31N 31°23' E 121°37'46319841.1
2016-May-24 22:29N 24°25' E 117°52'3961421.2
2016-May-24 22:13N 29°54' E 121°59'102153.3
2016-May-24 21:33N 31°31' E 121°23'14134.0
2016-May-24 21:27N 31°23' E 121°37'4638130.0
2016-May-24 21:23N 24°25' E 117°52'463556.5
2016-May-24 20:34N 31°23' E 121°37'141776.1
2016-May-24 20:33N 31°31' E 121°23'4657672.8
2016-May-24 20:29N 24°25' E 117°52'4701152.1
2016-May-24 20:05N 31°57' E 120°17'76144.8
2016-May-24 19:34N 31°23' E 121°37'141767.7
2016-May-24 19:33N 31°31' E 121°23'4651288.6
2016-May-24 19:11N 24°25' E 117°52'463732.9
2016-May-24 18:34N 31°23' E 121°37'141644.7
2016-May-24 18:33N 31°31' E 121°23'102428.0
2016-May-24 18:19N 29°54' E 121°59'90118.5
2016-May-24 17:33N 31°22' E 121°38'157824.6
2016-May-24 17:33N 31°31' E 121°23'1022629.4
2016-May-24 17:31N 29°54' E 121°59'3963221.9
2016-May-24 17:23N 24°25' E 117°52'461539.9
2016-May-24 16:32N 31°17' E 121°44'23122.2
2016-May-24 16:21N 31°31' E 121°23'0 0.0
2016-May-24 15:27N 31°31' E 121°23'102735.4
2016-May-24 15:19N 29°54' E 121°59'102133.3
2016-May-24 14:33N 31°31' E 121°23'0 0.0
2016-May-24 13:33N 31°31' E 121°23'1022687.0
2016-May-24 13:31N 29°54' E 121°59'102105.6
2016-May-24 12:33N 31°31' E 121°23'0 0.0
2016-May-24 11:33N 31°31' E 121°23'98411.4
2016-May-24 11:19N 29°56' E 121°53'98128.7
2016-May-24 10:33N 31°31' E 121°23'0 0.0
2016-May-24 09:27N 31°31' E 121°23'0 0.0
2016-May-24 08:27N 31°31' E 121°23'0 0.0
2016-May-24 07:33N 31°31' E 121°23'0 0.0
2016-May-24 06:33N 31°31' E 121°23'0 0.0
2016-May-24 05:33N 31°31' E 121°23'0 0.0
2016-May-24 04:33N 31°31' E 121°23'0 0.0
2016-May-24 03:33N 31°31' E 121°23'66976.3
2016-May-24 03:29N 30°41' E 122°13'6668.7
2016-May-24 02:32N 31°31' E 121°23'71968.1
2016-May-24 02:27N 30°34' E 122°13'4362426.3
2016-May-24 02:17N 24°25' E 117°52'465622.1
2016-May-24 01:32N 31°31' E 121°23'0 0.0
2016-May-24 00:32N 31°31' E 121°23'751675.2
2016-May-24 00:29N 30°31' E 122°15'6518278.4
2016-May-24 00:24N 22°58' E 113°32'6532053.7
2016-May-24 00:05N 31°58' E 120°26'56100.4
2016-May-23 23:32N 31°31' E 121°23'75665.5
2016-May-23 23:25N 30°30' E 122°15'7584.5
2016-May-23 22:32N 31°31' E 121°23'0 0.0
2016-May-23 21:11N 31°31' E 121°23'0 0.0
2016-May-23 20:32N 31°31' E 121°23'659638.5
2016-May-23 19:30N 23°03' E 113°31'65935940.0
2016-May-23 19:29N 31°31' E 121°23'102562.2
2016-May-23 19:18N 29°54' E 121°59'613825.3
2016-May-23 18:33N 23°03' E 113°31'65924454.2
2016-May-23 18:32N 31°31' E 121°23'23173.8
2016-May-23 18:24N 31°08' E 121°28'645763.5
2016-May-23 17:33N 23°02' E 113°31'66136049.1
2016-May-23 17:32N 31°07' E 121°55'3733095.9
2016-May-23 17:32N 31°31' E 121°23'20282.4
2016-May-23 17:28N 31°12' E 121°29'2426.0
2016-May-23 16:33N 31°07' E 121°55'661183108.7
2016-May-23 16:33N 23°02' E 113°31'66029324.0
2016-May-23 16:32N 31°31' E 121°23'17269.5
2016-May-23 16:28N 31°15' E 121°31'1096.0
2016-May-23 16:22N 31°23' E 121°36'2328.2
2016-May-23 15:32N 31°07' E 121°55'6611190198.8
2016-May-23 15:32N 23°02' E 113°31'660118759.9
2016-May-23 15:32N 31°31' E 121°23'15436.4
2016-May-23 15:30N 31°18' E 121°33'1515.7
2016-May-23 14:32N 31°31' E 121°23'1120227.6
2016-May-23 14:32N 31°21' E 121°30'6 5.7
2016-May-23 13:32N 31°27' E 121°29'3465.1
2016-May-23 13:32N 31°24' E 121°31'102182.5
2016-May-23 13:32N 31°31' E 121°23'0 0.0
2016-May-23 12:32N 31°31' E 121°23'66040260.9
2016-May-23 12:31N 23°02' E 113°31'6643537.0
2016-May-23 12:20N 32°01' E 120°47'4354.4
2016-May-23 11:32N 31°31' E 121°23'251190.8
2016-May-23 11:31N 31°15' E 121°46'66214702.9
2016-May-23 11:28N 23°02' E 113°31'661726.4
2016-May-23 10:33N 31°21' E 121°38'66137767.5
2016-May-23 10:32N 23°02' E 113°31'659113035.6
2016-May-23 10:32N 31°31' E 121°23'659677.2
2016-May-23 09:33N 23°03' E 113°31'65924712.5
2016-May-23 09:32N 31°31' E 121°23'659677.1
2016-May-23 08:33N 23°03' E 113°31'6591186276.0
2016-May-23 08:33N 31°24' E 121°31'10379.3
2016-May-23 08:32N 31°31' E 121°23'55117.5
2016-May-23 08:04N 31°59' E 120°27'6511260.1
2016-May-23 07:33N 23°03' E 113°31'65957863.8
2016-May-23 07:32N 31°31' E 121°23'10488.2
2016-May-23 07:31N 31°22' E 121°30'656690.1
2016-May-23 06:33N 23°03' E 113°31'65923258.1
2016-May-23 06:32N 31°31' E 121°23'18153.0
2016-May-23 06:25N 31°43' E 121°07'291022.3
2016-May-23 06:23N 31°22' E 121°30'656795.1
2016-May-23 05:33N 23°03' E 113°31'65925509.0
2016-May-23 05:32N 31°31' E 121°23'10424.4
2016-May-23 05:30N 31°22' E 121°30'656675.5
2016-May-23 04:32N 23°03' E 113°31'659158154.9
2016-May-23 04:32N 31°31' E 121°23'6175.8
2016-May-23 04:30N 31°35' E 121°19'16481.3
2016-May-23 04:28N 31°22' E 121°30'656718.9
2016-May-23 03:33N 23°03' E 113°31'66062520.4
2016-May-23 03:32N 31°31' E 121°24'199.8
2016-May-23 03:32N 31°31' E 121°23'1051.9
2016-May-23 03:20N 31°22' E 121°30'1013.1
2016-May-23 02:32N 31°31' E 121°23'65916246.3
2016-May-23 02:29N 23°03' E 113°31'66020470.9
2016-May-23 02:27N 31°27' E 121°29'52169.7
2016-May-23 02:09N 32°01' E 120°43'5591.0
2016-May-23 01:32N 31°23' E 121°30'101251.0
2016-May-23 01:32N 31°31' E 121°23'659215633.1
2016-May-23 01:32N 23°03' E 113°31'65627471.9
2016-May-23 01:30N 31°22' E 121°30'656693.5
2016-May-23 00:33N 23°03' E 113°31'65924205.7
2016-May-23 00:32N 31°31' E 121°23'101445.9
2016-May-23 00:31N 31°22' E 121°30'654.3
2016-May-23 00:24N 31°17' E 121°34'4 5.2
2016-May-22 23:32N 31°14' E 121°30'182014.9
2016-May-22 23:32N 31°31' E 121°23'66236648.7
2016-May-22 23:31N 22°59' E 113°32'662673.1
2016-May-22 22:32N 31°31' E 121°23'1090.6
2016-May-22 22:25N 31°22' E 121°30'1011.8
2016-May-22 21:32N 31°31' E 121°23'0 0.0
2016-May-22 20:32N 31°31' E 121°23'35319.0
2016-May-22 20:25N 30°57' E 121°12'5 5.7
2016-May-22 19:33N 30°58' E 121°18'33268.4
2016-May-22 19:26N 31°31' E 121°23'3135.3
2016-May-22 18:33N 30°60' E 121°26'311131.4
2016-May-22 18:32N 31°31' E 121°23'0 0.0
2016-May-22 17:32N 31°31' E 121°23'2152.5
2016-May-22 17:08N 31°45' E 121°05'5 8.4
2016-May-22 16:33N 31°42' E 121°10'16879.5
2016-May-22 16:32N 31°31' E 121°23'1958.5
2016-May-22 16:12N 31°12' E 121°30'82126.5
2016-May-22 15:33N 29°54' E 121°59'1025076.2
2016-May-22 15:32N 31°31' E 121°23'512.9
2016-May-22 15:08N 31°35' E 121°19'1830.5
2016-May-22 14:32N 31°20' E 121°32'132323.7
2016-May-22 14:32N 31°31' E 121°23'0 0.0
2016-May-22 13:32N 31°31' E 121°23'1048.2
2016-May-22 13:20N 31°23' E 121°30'1012.3
2016-May-22 12:32N 31°31' E 121°23'1092.3
2016-May-22 12:25N 31°23' E 121°30'1011.0
2016-May-22 11:32N 31°31' E 121°23'1024.0
2016-May-22 11:07N 31°23' E 121°30'2237.5
2016-May-22 10:32N 31°01' E 121°28'304518.6
2016-May-22 10:32N 31°31' E 121°23'101218.4
2016-May-22 10:31N 31°23' E 121°30'661179.6
2016-May-22 10:28N 30°30' E 122°16'5458.7
2016-May-22 09:33N 30°60' E 121°23'24724.5
2016-May-22 09:31N 31°23' E 121°30'10108.4
2016-May-22 09:26N 31°31' E 121°23'0 0.0
2016-May-22 08:32N 31°31' E 121°23'10930.3
2016-May-22 08:31N 31°23' E 121°30'212250.4
2016-May-22 08:31N 31°02' E 121°29'0 0.1
2016-May-22 07:33N 31°01' E 121°29'301147.6
2016-May-22 07:32N 31°31' E 121°23'10338.1
2016-May-22 07:30N 31°23' E 121°30'10 9.1
2016-May-22 06:26N 31°31' E 121°23'71890.4
2016-May-22 06:21N 30°34' E 122°13'61405.7
2016-May-22 06:12N 31°23' E 121°30'0 0.5
2016-May-22 05:33N 31°23' E 121°30'10352.2
2016-May-22 05:32N 31°31' E 121°23'664839.6
2016-May-22 05:31N 30°40' E 122°12'43620367.0
2016-May-22 05:30N 37°50' E 120°44'389415.3
2016-May-22 04:33N 31°23' E 121°30'5214369.6
2016-May-22 04:33N 32°01' E 120°49'421680.8
2016-May-22 04:32N 31°31' E 121°23'10332.2
2016-May-22 04:30N 31°23' E 121°30'0 0.4
2016-May-22 03:33N 31°23' E 121°30'10138.7
2016-May-22 03:29N 31°31' E 121°23'1031.3
2016-May-22 03:10N 31°23' E 121°30'224.4
2016-May-22 03:05N 31°24' E 121°32'1018.5
2016-May-22 02:32N 31°31' E 121°23'1022.6
2016-May-22 02:06N 31°23' E 121°30'61455.0
2016-May-22 02:06N 31°24' E 121°37'46433380.8
2016-May-22 02:05N 24°24' E 117°53'464882.6
2016-May-22 01:33N 31°24' E 121°37'46355507.6
2016-May-22 01:33N 24°24' E 117°57'46429293.4
2016-May-22 01:32N 31°31' E 121°23'332.1
2016-May-22 01:26N 31°32' E 121°19'13426.4
2016-May-22 01:24N 31°23' E 121°30'2125.2
2016-May-22 00:33N 31°39' E 121°13'46583693.7
2016-May-22 00:33N 24°25' E 118°04'45959036.6
2016-May-22 00:32N 31°24' E 121°37'141654.1
2016-May-22 00:32N 31°31' E 121°23'1059.2
2016-May-22 00:22N 31°23' E 121°30'6 7.5
2016-May-21 23:33N 31°24' E 121°37'369354.1
2016-May-21 23:33N 30°50' E 121°22'42495365.8
2016-May-21 23:33N 24°21' E 118°11'46228663.4
2016-May-21 23:32N 31°31' E 121°23'1058.5
2016-May-21 23:22N 31°23' E 121°30'1254.9
2016-May-21 23:09N 31°18' E 121°43'3152.9
2016-May-21 22:33N 30°53' E 121°22'291677.0
2016-May-21 22:32N 31°21' E 121°31'63560.9
2016-May-21 22:32N 31°24' E 121°37'45858903.4
2016-May-21 22:32N 24°21' E 118°17'45765743.8
2016-May-21 22:31N 31°22' E 121°37'6179.3
2016-May-21 22:29N 31°23' E 121°30'10857.8
2016-May-21 22:29N 31°31' E 121°23'3537.8
2016-May-21 21:34N 30°56' E 121°20'316275.4
2016-May-21 21:33N 31°24' E 121°37'14570.4
2016-May-21 21:32N 31°31' E 121°23'4571644599.4
2016-May-21 21:32N 24°22' E 118°23'4452283.0
2016-May-21 21:20N 31°15' E 121°30'855.1
2016-May-21 21:11N 31°23' E 121°30'6 9.4
2016-May-21 20:33N 31°24' E 121°37'14744.0
2016-May-21 20:32N 31°31' E 121°23'4522695.2
2016-May-21 20:22N 24°25' E 118°31'44780470.0
2016-May-21 20:21N 31°23' E 121°30'0 0.0
2016-May-21 19:33N 31°23' E 121°30'6947.4
2016-May-21 19:33N 31°24' E 121°37'14702.1
2016-May-21 19:32N 31°31' E 121°23'0 0.0
2016-May-21 18:32N 31°31' E 121°23'5409109386.1
2016-May-21 18:29N 48°33' W 123°01'540461953.8
2016-May-21 18:24N 31°24' E 121°37'6939.9
2016-May-21 18:23N 31°23' E 121°30'6 7.1
2016-May-21 17:33N 31°24' E 121°37'14698.8
2016-May-21 17:32N 31°31' E 121°23'10230.7
2016-May-21 17:29N 31°23' E 121°30'540835922.6
2016-May-21 17:20N 48°34' W 123°02'54076703.2
2016-May-21 16:32N 31°31' E 121°23'4281540056.6
2016-May-21 16:32N 24°44' E 118°53'42554682.7
2016-May-21 16:31N 31°24' E 121°37'635.3
2016-May-21 16:21N 31°23' E 121°30'6 7.3
2016-May-21 15:32N 31°24' E 121°37'141836.3
2016-May-21 15:32N 31°31' E 121°23'42112319.0
2016-May-21 15:30N 24°50' E 118°58'41536480.2
2016-May-21 15:29N 31°23' E 121°30'6 6.4
2016-May-21 14:33N 31°24' E 121°37'14556.9
2016-May-21 14:32N 31°31' E 121°23'102226.6
2016-May-21 14:31N 31°23' E 121°30'6 6.2
2016-May-21 13:33N 31°24' E 121°37'14739.5
2016-May-21 13:32N 31°31' E 121°23'1047.8
2016-May-21 13:19N 31°23' E 121°30'1012.4
2016-May-21 12:32N 31°31' E 121°23'144132.5
2016-May-21 12:32N 31°24' E 121°37'61560.9
2016-May-21 12:31N 31°23' E 121°30'10 9.9
2016-May-21 11:32N 31°31' E 121°23'142372.1
2016-May-21 11:31N 31°24' E 121°37'660.2
2016-May-21 11:25N 31°23' E 121°30'6 7.0
2016-May-21 10:33N 31°24' E 121°37'6734.1
2016-May-21 10:33N 31°23' E 121°30'10611.4
2016-May-21 10:32N 31°31' E 121°23'659678.7
2016-May-21 09:34N 23°04' E 113°30'65746376.3
2016-May-21 09:33N 31°23' E 121°30'63670.7
2016-May-21 09:33N 31°24' E 121°37'141016.0
2016-May-21 09:32N 31°31' E 121°23'3851225.4
2016-May-21 09:13N 25°18' E 119°32'382578.1
2016-May-21 08:33N 31°24' E 121°37'662397103.3
2016-May-21 08:33N 23°06' E 113°27'65928922.7
2016-May-21 08:32N 31°31' E 121°23'1024.1
2016-May-21 08:07N 31°23' E 121°30'6571170.9
2016-May-21 07:33N 23°06' E 113°27'66245819.6
2016-May-21 07:33N 31°24' E 121°37'141040.9
2016-May-21 07:32N 31°31' E 121°23'1052.3
2016-May-21 07:20N 31°23' E 121°30'657839.0
2016-May-21 06:33N 23°06' E 113°27'66232639.1
2016-May-21 06:32N 31°24' E 121°37'141722.9
2016-May-21 06:32N 31°31' E 121°23'1087.2
2016-May-21 06:25N 31°23' E 121°30'25151.2
2016-May-21 06:15N 30°59' E 121°22'4 5.8
2016-May-21 05:33N 31°00' E 121°26'63862103.0
2016-May-21 05:33N 23°06' E 113°27'65776297.3
2016-May-21 05:32N 31°23' E 121°30'101151.4
2016-May-21 05:32N 31°31' E 121°23'141711.9
2016-May-21 05:31N 31°24' E 121°37'2121.3
2016-May-21 04:33N 31°05' E 121°28'643105168.7
2016-May-21 04:33N 23°06' E 113°27'662238244.6
2016-May-21 04:33N 31°24' E 121°37'6516.3
2016-May-21 04:32N 31°23' E 121°30'101274.8
2016-May-21 04:32N 31°31' E 121°23'659675.9
2016-May-21 03:33N 23°06' E 113°27'662794148.6
2016-May-21 03:33N 31°24' E 121°37'35237297.5
2016-May-21 03:33N 25°47' E 119°40'3565517.0
2016-May-21 03:29N 31°31' E 121°23'20319.0
2016-May-21 03:25N 31°12' E 121°28'1137.3
2016-May-21 03:07N 31°23' E 121°30'54119734.3
2016-May-21 02:33N 48°32' W 123°00'54051621379.5
2016-May-21 02:33N 31°24' E 121°37'104041.2
2016-May-21 02:33N 31°15' E 121°31'17752.3
2016-May-21 02:32N 31°31' E 121°23'659263528.8
2016-May-21 02:32N 23°06' E 113°27'0 0.0
2016-May-21 01:33N 23°06' E 113°27'65771622.7
2016-May-21 01:33N 31°19' E 121°33'5657.6
2016-May-21 01:32N 31°24' E 121°37'14127.6
2016-May-21 01:26N 31°31' E 121°23'660755.2
2016-May-21 00:33N 23°05' E 113°26'657215169.6
2016-May-21 00:33N 31°22' E 121°30'61403.5
2016-May-21 00:33N 31°24' E 121°37'14727.4
2016-May-21 00:32N 31°31' E 121°23'660677.5
2016-May-20 23:33N 23°05' E 113°26'66048468.1
2016-May-20 23:33N 31°26' E 121°29'7256.7
2016-May-20 23:31N 31°24' E 121°37'14162.0
2016-May-20 23:26N 31°31' E 121°23'1 0.9
2016-May-20 22:33N 31°30' E 121°23'659215734.2
2016-May-20 22:33N 23°05' E 113°26'66031668.2
2016-May-20 22:32N 31°31' E 121°23'141557.4
2016-May-20 22:31N 31°24' E 121°37'1920.2
2016-May-20 21:33N 31°34' E 121°18'66095010.2
2016-May-20 21:33N 23°05' E 113°26'663238586.9
2016-May-20 21:33N 31°24' E 121°37'14735.1
2016-May-20 21:32N 31°31' E 121°23'102486.0
2016-May-20 21:19N 29°54' E 121°59'92119.7
2016-May-20 20:33N 31°24' E 121°37'66379529.0
2016-May-20 20:33N 23°05' E 113°26'660264184.4
2016-May-20 20:33N 31°39' E 121°13'12872.2
2016-May-20 20:32N 31°31' E 121°23'609029.1
2016-May-20 20:31N 31°58' E 120°20'150593.0
2016-May-20 20:16N 29°54' E 121°59'615862.8
2016-May-20 19:33N 23°05' E 113°26'66379529.5
2016-May-20 19:33N 31°24' E 121°37'14714.1
2016-May-20 19:32N 31°31' E 121°23'19232.3
2016-May-20 19:27N 31°43' E 121°07'3236.1
2016-May-20 18:33N 31°24' E 121°37'6632385900.9
2016-May-20 18:33N 23°05' E 113°26'662476338.1
2016-May-20 18:33N 32°00' E 120°44'441918.7
2016-May-20 18:32N 31°31' E 121°23'1021716.2
2016-May-20 18:28N 29°54' E 121°59'1201675.3
2016-May-20 18:24N 31°44' E 121°04'659775.5
2016-May-20 17:33N 23°05' E 113°26'66035985.2
2016-May-20 17:32N 31°31' E 121°23'143546.8
2016-May-20 17:32N 31°24' E 121°37'34414.1
2016-May-20 17:27N 31°44' E 121°04'30146.4
2016-May-20 17:14N 32°00' E 120°34'6594.5
2016-May-20 16:33N 31°24' E 121°37'663113606.0
2016-May-20 16:33N 23°05' E 113°26'66050532.7
2016-May-20 16:32N 31°31' E 121°23'561608.3
2016-May-20 16:30N 32°02' E 120°28'36323.3
2016-May-20 16:23N 31°44' E 121°04'659784.7
2016-May-20 15:33N 23°05' E 113°26'6631192871.4
2016-May-20 15:33N 31°24' E 121°37'141033.8
2016-May-20 15:32N 31°31' E 121°23'213101.9
2016-May-20 15:31N 31°44' E 121°04'42524.6
2016-May-20 15:27N 31°57' E 120°17'8 9.5
2016-May-20 14:33N 31°56' E 120°08'640383765.8
2016-May-20 14:33N 23°05' E 113°26'659139629.2
2016-May-20 14:33N 31°44' E 121°04'3424744.1
2016-May-20 14:33N 31°24' E 121°37'14719.0
2016-May-20 14:32N 31°31' E 121°23'7981.8
2016-May-20 13:33N 32°02' E 119°57'936449.5
2016-May-20 13:33N 31°24' E 121°37'141011.8
2016-May-20 13:32N 31°31' E 121°23'21283.7
2016-May-20 13:27N 31°44' E 121°04'3437.4
2016-May-20 12:32N 31°24' E 121°37'141709.3
2016-May-20 12:32N 31°31' E 121°23'66021591.6
2016-May-20 12:30N 23°05' E 113°26'65911304.4
2016-May-20 12:26N 31°44' E 121°04'3088.5
2016-May-20 12:06N 31°23' E 121°30'6581175.7
2016-May-20 11:32N 23°05' E 113°27'663113582.5
2016-May-20 11:32N 31°24' E 121°37'146222.8
2016-May-20 11:32N 31°31' E 121°23'21744.9
2016-May-20 11:30N 31°44' E 121°04'1201468.9
2016-May-20 11:25N 29°54' E 121°59'102113.9
2016-May-20 10:32N 31°31' E 121°23'66022831.0
2016-May-20 10:30N 23°05' E 113°27'663340745.2
2016-May-20 10:30N 31°24' E 121°37'4433347.0
2016-May-20 10:22N 38°46' E 121°33'10301272.6
2016-May-20 09:33N 23°04' E 113°26'664298627.7
2016-May-20 09:33N 31°24' E 121°37'14566.0
2016-May-20 09:32N 31°31' E 121°23'3816260.5
2016-May-20 09:28N 37°50' E 120°44'4091117.5
2016-May-20 09:06N 31°03' E 121°28'3 5.3
2016-May-20 08:33N 31°01' E 121°27'236432.3
2016-May-20 08:33N 31°22' E 121°39'16846.2
2016-May-20 08:32N 31°31' E 121°23'0 0.0
2016-May-20 07:32N 31°31' E 121°23'2196.0
2016-May-20 07:19N 31°18' E 121°43'77393.9
2016-May-20 07:07N 31°59' E 120°26'5695.6
2016-May-20 06:32N 31°31' E 121°23'1010.5
2016-May-20 05:33N 31°22' E 121°30'10592.1
2016-May-20 05:32N 31°31' E 121°23'0 0.0
2016-May-20 04:32N 31°31' E 121°23'1088.1
2016-May-20 04:25N 31°22' E 121°30'1011.8
2016-May-20 03:32N 31°31' E 121°23'101868.7
2016-May-20 03:31N 31°22' E 121°30'931350.5
2016-May-20 03:27N 29°53' E 122°04'103111.7
2016-May-20 02:32N 31°31' E 121°23'103399.2
2016-May-20 02:32N 31°22' E 121°30'34216.0
2016-May-20 02:22N 31°47' E 121°02'3441.6
2016-May-20 01:33N 31°22' E 121°30'10747.8
2016-May-20 01:32N 31°31' E 121°23'0 0.1
2016-May-20 00:32N 31°31' E 121°23'65588.9
2016-May-20 00:25N 31°56' E 120°12'152577.8
2016-May-20 00:09N 29°54' E 121°59'102162.1
2016-May-19 23:32N 31°31' E 121°23'1021373.9
2016-May-19 23:27N 29°54' E 121°59'102109.6
2016-May-19 22:32N 31°31' E 121°23'70155.5
2016-May-19 22:05N 30°36' E 122°14'70127.0
2016-May-19 21:32N 31°31' E 121°23'102272.1
2016-May-19 21:09N 29°54' E 121°59'102162.1
2016-May-19 20:32N 31°31' E 121°23'0 0.0
2016-May-19 19:32N 31°31' E 121°23'1024299.4
2016-May-19 19:30N 29°54' E 121°59'1481193.3
2016-May-19 19:23N 31°59' E 120°26'5665.5
2016-May-19 18:32N 31°31' E 121°23'102585.6
2016-May-19 18:21N 29°54' E 121°59'102109.6
2016-May-19 17:26N 31°31' E 121°23'102821.3
2016-May-19 17:18N 29°54' E 121°59'39395.7
2016-May-19 17:12N 30°31' E 122°15'1281983.2
2016-May-19 17:09N 31°59' E 120°26'5691.2
2016-May-19 16:32N 31°31' E 121°23'56430.3
2016-May-19 16:24N 31°59' E 120°26'5664.2
2016-May-19 15:32N 31°31' E 121°23'562137.4
2016-May-19 15:30N 31°59' E 120°26'148425.4
2016-May-19 15:09N 29°54' E 121°59'102161.9
2016-May-19 14:32N 31°31' E 121°23'75396.5
2016-May-19 14:20N 30°31' E 122°15'39464.4
2016-May-19 14:15N 29°54' E 121°59'6204043.0
2016-May-19 14:06N 23°02' E 113°21'6201134.0
2016-May-19 13:33N 29°54' E 121°59'61611542.6
2016-May-19 13:30N 23°04' E 113°26'66129729.6
2016-May-19 13:29N 31°31' E 121°23'56938.9
2016-May-19 13:25N 31°59' E 120°26'1284664.3
2016-May-19 13:24N 30°31' E 122°15'1172490.9
2016-May-19 13:21N 32°01' E 120°48'4251.6
2016-May-19 12:32N 31°31' E 121°23'56437.7
2016-May-19 12:24N 31°59' E 120°26'148174.9
2016-May-19 11:33N 29°54' E 121°59'1023888.2
2016-May-19 11:32N 31°31' E 121°23'562450.4
2016-May-19 11:30N 31°59' E 120°26'5657.1
2016-May-19 10:32N 31°31' E 121°23'102584.8
2016-May-19 10:21N 29°54' E 121°59'1481415.3
2016-May-19 10:15N 31°59' E 120°26'1281825.0
2016-May-19 10:11N 30°31' E 122°15'75114.9
2016-May-19 09:32N 31°31' E 121°23'75410.4
2016-May-19 09:21N 30°31' E 122°15'3949.6
2016-May-19 08:33N 29°54' E 121°59'1023888.2
2016-May-19 08:32N 31°31' E 121°23'757505.1
2016-May-19 08:31N 30°31' E 122°15'922592.8
2016-May-19 08:29N 31°42' E 121°08'1718.2
2016-May-19 07:32N 31°31' E 121°23'751452.5
2016-May-19 07:29N 30°31' E 122°15'0 0.0
2016-May-19 06:33N 30°31' E 122°15'752701.7
2016-May-19 06:32N 31°31' E 121°23'73364.8
2016-May-19 06:20N 31°58' E 120°04'19436.0
2016-May-19 06:17N 31°59' E 120°26'148820.1
2016-May-19 06:06N 29°54' E 121°59'102176.0
2016-May-19 05:32N 31°31' E 121°23'1818.4
2016-May-19 04:33N 31°21' E 121°41'18875.3
2016-May-19 04:32N 31°31' E 121°23'755873.2
2016-May-19 04:31N 30°31' E 122°15'1361679.7
2016-May-19 04:26N 31°57' E 120°13'153545.4
2016-May-19 04:09N 29°54' E 121°59'102162.3
2016-May-19 03:32N 31°31' E 121°23'751986.5
2016-May-19 03:30N 30°31' E 122°15'13440175.6
2016-May-19 03:29N 31°57' E 120°15'27114.6
2016-May-19 03:15N 32°00' E 120°47'4358.9
2016-May-19 02:32N 31°31' E 121°23'752755.2
2016-May-19 02:30N 30°31' E 122°15'39845.7
2016-May-19 02:27N 29°54' E 121°59'123133.6
2016-May-19 01:32N 31°47' E 121°03'243528.0
2016-May-19 01:32N 31°31' E 121°23'563587.6
2016-May-19 01:31N 31°59' E 120°26'1286596.4
2016-May-19 01:30N 30°31' E 122°15'130820.9
2016-May-19 01:20N 31°58' E 120°23'5871.8
2016-May-19 00:32N 31°31' E 121°23'75626.4
2016-May-19 00:25N 30°31' E 122°15'7585.2
2016-May-18 23:32N 31°31' E 121°23'101314.7
2016-May-18 23:12N 29°54' E 121°59'39441.6
2016-May-18 23:07N 30°31' E 122°15'75127.3
2016-May-18 22:32N 31°31' E 121°23'75422.2
2016-May-18 22:21N 30°31' E 122°15'0 0.0
2016-May-18 21:33N 30°31' E 122°15'753372.4
2016-May-18 21:32N 31°31' E 121°23'56381.6
2016-May-18 21:23N 31°59' E 120°26'6546343.4
2016-May-18 21:17N 22°58' E 113°32'7 9.1
2016-May-18 20:33N 23°04' E 113°29'65132545.3
2016-May-18 20:32N 30°36' E 122°14'7012530.3
2016-May-18 20:32N 31°31' E 121°23'56613.1
2016-May-18 20:26N 31°59' E 120°26'5661.3
2016-May-18 19:32N 31°31' E 121°23'66014933.4
2016-May-18 19:29N 23°05' E 113°26'6509255.1
2016-May-18 19:25N 31°59' E 120°26'650749.0
2016-May-18 18:33N 23°05' E 113°26'66038924.8
2016-May-18 18:32N 31°31' E 121°23'56136.9
2016-May-18 18:07N 31°59' E 120°26'6501152.8
2016-May-18 17:33N 23°05' E 113°26'65923506.5
2016-May-18 17:32N 31°31' E 121°23'1024512.2
2016-May-18 17:30N 29°54' E 121°59'614632.2
2016-May-18 16:32N 23°06' E 113°27'65911682.8
2016-May-18 16:29N 31°31' E 121°23'38219.1
2016-May-18 16:18N 31°06' E 121°57'958758.1
2016-May-18 16:18N 31°58' E 120°24'210.3
2016-May-18 16:05N 31°59' E 120°26'6501220.7
2016-May-18 15:33N 23°06' E 113°27'65923716.0
2016-May-18 15:32N 31°31' E 121°23'1144235.6
2016-May-18 15:30N 29°42' E 122°02'89552.1
2016-May-18 15:21N 31°10' E 121°51'7696.9
2016-May-18 14:33N 29°54' E 121°59'61469033.2
2016-May-18 14:33N 23°06' E 113°27'6595606.6
2016-May-18 14:26N 31°31' E 121°23'1092369.4
2016-May-18 14:23N 29°48' E 122°05'614729.6
2016-May-18 13:33N 23°06' E 113°27'65066826.4
2016-May-18 13:32N 31°59' E 120°26'5628702.7
2016-May-18 13:32N 31°31' E 121°23'105641.5
2016-May-18 13:22N 29°53' E 122°08'620756.8
2016-May-18 12:33N 23°06' E 113°27'65937056.3
2016-May-18 12:32N 31°31' E 121°23'567176.1
2016-May-18 12:31N 31°59' E 120°26'1484526.0
2016-May-18 12:29N 29°56' E 122°04'1236.6
2016-May-18 12:09N 29°57' E 121°50'1016.0
2016-May-18 11:34N 30°00' E 122°00'61969613.7
2016-May-18 11:33N 23°06' E 113°27'65932938.2
2016-May-18 11:32N 31°31' E 121°23'561445.7
2016-May-18 11:29N 31°59' E 120°26'650690.2
2016-May-18 10:33N 23°06' E 113°27'65932488.5
2016-May-18 10:32N 31°31' E 121°23'659670.1
2016-May-18 09:33N 23°06' E 113°27'65939527.6
2016-May-18 09:32N 31°31' E 121°23'56505.3
2016-May-18 09:25N 31°59' E 120°26'74218.3
2016-May-18 09:05N 31°20' E 121°40'6611260.0
2016-May-18 08:33N 23°06' E 113°27'660237529.5
2016-May-18 08:33N 31°23' E 121°35'13537.5
2016-May-18 08:32N 31°31' E 121°23'659669.2
2016-May-18 07:33N 23°06' E 113°27'65941605.9
2016-May-18 07:32N 31°31' E 121°23'659635.6
2016-May-18 06:30N 23°06' E 113°27'65910311.2
2016-May-18 06:26N 31°31' E 121°23'102342.5
2016-May-18 06:08N 29°54' E 121°59'6141059.6
2016-May-18 05:33N 23°06' E 113°27'65927259.6
2016-May-18 05:32N 31°31' E 121°23'659667.7
2016-May-18 04:33N 23°06' E 113°27'65950459.6
2016-May-18 04:32N 31°31' E 121°23'69262.7
2016-May-18 04:16N 30°38' E 122°14'652913.9
2016-May-18 03:33N 23°06' E 113°27'6592938.8
2016-May-18 03:20N 31°31' E 121°23'659847.6
2016-May-18 02:33N 23°05' E 113°26'65924991.4
2016-May-18 02:32N 31°31' E 121°23'0 0.0
2016-May-18 01:23N 31°31' E 121°23'0 0.0
2016-May-18 00:32N 31°31' E 121°23'0 0.0
2016-May-17 23:26N 31°31' E 121°23'41114.6
2016-May-17 23:04N 31°05' E 122°00'4175.9
2016-May-17 22:32N 31°31' E 121°23'0 0.1
2016-May-17 21:32N 31°31' E 121°23'0 0.0
2016-May-17 20:32N 31°31' E 121°23'0 0.0
2016-May-17 19:32N 31°31' E 121°23'1256.3
2016-May-17 19:19N 31°23' E 121°34'1215.6
2016-May-17 18:32N 31°31' E 121°23'5207.5
2016-May-17 18:30N 31°27' E 121°27'8 8.1
2016-May-17 17:33N 31°32' E 121°20'390.2
2016-May-17 17:32N 31°31' E 121°23'1010.2
2016-May-17 16:33N 31°38' E 121°15'10306.9
2016-May-17 16:32N 31°31' E 121°23'102418.2
2016-May-17 16:17N 29°54' E 121°59'102134.1
2016-May-17 15:32N 31°31' E 121°23'0 0.0
2016-May-17 14:32N 31°31' E 121°23'102346.8
2016-May-17 14:14N 29°54' E 121°59'150799.2
2016-May-17 14:03N 31°58' E 120°21'150292.2
2016-May-17 13:32N 29°54' E 121°59'10215890.9
2016-May-17 13:32N 31°31' E 121°23'16218.0
2016-May-17 13:27N 31°42' E 121°10'6 7.1
2016-May-17 12:33N 31°38' E 121°16'10375.0
2016-May-17 12:32N 31°31' E 121°23'59188.8
2016-May-17 12:13N 31°58' E 120°21'5686.3
2016-May-17 11:34N 31°33' E 121°20'3102.0
2016-May-17 11:32N 31°31' E 121°23'70355.1
2016-May-17 11:20N 30°35' E 122°12'5 6.3
2016-May-17 10:33N 30°40' E 122°12'6375510.2
2016-May-17 10:33N 31°30' E 121°26'624890.9
2016-May-17 10:32N 31°58' E 120°21'599723.9
2016-May-17 10:32N 31°31' E 121°23'1021087.7
2016-May-17 10:26N 29°54' E 121°59'102112.0
2016-May-17 09:32N 31°31' E 121°23'91734.6
2016-May-17 09:31N 31°25' E 121°31'9 9.2
2016-May-17 08:32N 31°31' E 121°23'102417.7
2016-May-17 08:17N 29°54' E 121°59'861843.7
2016-May-17 08:14N 31°17' E 121°34'656962.2
2016-May-17 07:33N 23°01' E 113°32'6145046.1
2016-May-17 07:26N 29°54' E 121°59'10240607.7
2016-May-17 07:26N 31°31' E 121°23'19823.6
2016-May-17 07:24N 31°13' E 121°30'651764.5
2016-May-17 06:33N 23°02' E 113°31'6608480.2
2016-May-17 06:29N 31°31' E 121°23'25292.4
2016-May-17 06:24N 31°06' E 121°28'6 6.6
2016-May-17 05:33N 31°01' E 121°28'6408289.7
2016-May-17 05:29N 23°02' E 113°31'6604405.3
2016-May-17 05:20N 31°31' E 121°23'591243.8
2016-May-17 05:17N 31°58' E 120°21'648881.0
2016-May-17 04:33N 23°02' E 113°31'66040938.2
2016-May-17 04:32N 31°31' E 121°23'59211.0
2016-May-17 04:15N 31°58' E 120°21'766715.2
2016-May-17 04:14N 31°21' E 121°39'6 8.0
2016-May-17 03:32N 31°23' E 121°33'66095019.9
2016-May-17 03:31N 23°02' E 113°31'66014478.0
2016-May-17 03:29N 31°31' E 121°23'59592.6
2016-May-17 03:23N 31°58' E 120°21'648789.4
2016-May-17 02:33N 23°02' E 113°31'6608360.3
2016-May-17 02:29N 31°31' E 121°23'59164.0
2016-May-17 02:07N 32°03' E 120°26'80141.3
2016-May-17 01:33N 30°59' E 121°22'635285880.0
2016-May-17 01:33N 23°02' E 113°31'66028606.2
2016-May-17 01:32N 31°31' E 121°23'660670.5
2016-May-17 00:33N 23°01' E 113°31'66010065.8
2016-May-17 00:29N 31°31' E 121°23'660705.9
2016-May-16 23:33N 23°01' E 113°32'6588286.7
2016-May-16 23:28N 32°01' E 120°37'491350.1
2016-May-16 23:26N 31°31' E 121°23'660738.3
2016-May-16 22:32N 23°01' E 113°32'660103264.7
2016-May-16 22:32N 31°31' E 121°23'45153.0
2016-May-16 22:14N 32°01' E 120°44'662980.3
2016-May-16 21:33N 23°01' E 113°32'66022197.1
2016-May-16 21:32N 31°31' E 121°23'660680.0
2016-May-16 20:33N 23°01' E 113°32'6608275.6
2016-May-16 20:29N 31°31' E 121°23'660606.2
2016-May-16 19:23N 23°01' E 113°32'66059377.2
2016-May-16 19:23N 31°31' E 121°23'660802.4
2016-May-16 18:33N 23°01' E 113°32'66023285.2
2016-May-16 18:32N 31°31' E 121°23'660674.9
2016-May-16 17:33N 23°01' E 113°32'66029322.3
2016-May-16 17:32N 31°31' E 121°23'596908.1
2016-May-16 17:31N 31°58' E 120°21'648669.1
2016-May-16 16:33N 23°01' E 113°32'6609099.7
2016-May-16 16:29N 31°31' E 121°23'660717.1
2016-May-16 15:33N 23°01' E 113°32'66021991.5
2016-May-16 15:32N 31°31' E 121°23'660664.9
2016-May-16 14:32N 23°02' E 113°31'66087970.3
2016-May-16 14:32N 31°31' E 121°23'660672.3
2016-May-16 13:33N 23°02' E 113°31'66035450.2
2016-May-16 13:32N 31°31' E 121°23'660679.2
2016-May-16 12:33N 23°01' E 113°31'6608452.2
2016-May-16 12:29N 31°31' E 121°23'59205.7
2016-May-16 12:11N 31°58' E 120°21'5989.6
2016-May-16 11:32N 31°31' E 121°23'66031245.2
2016-May-16 11:30N 23°01' E 113°32'6485139.7
2016-May-16 11:23N 31°58' E 120°21'648786.7
2016-May-16 10:33N 23°01' E 113°32'66023280.5
2016-May-16 10:32N 31°31' E 121°23'660667.4
2016-May-16 09:32N 23°01' E 113°32'66010600.9
2016-May-16 09:29N 31°31' E 121°23'59313.8
2016-May-16 09:17N 31°58' E 120°21'648871.3
2016-May-16 08:33N 23°01' E 113°32'66040247.1
2016-May-16 08:32N 31°31' E 121°23'660667.0
2016-May-16 07:32N 23°01' E 113°32'66060887.1
2016-May-16 07:32N 31°31' E 121°23'0 0.0
2016-May-16 06:32N 31°31' E 121°23'66053968.1
2016-May-16 06:31N 23°01' E 113°32'6482354.6
2016-May-16 06:14N 31°58' E 120°21'5983.4
2016-May-16 05:32N 31°31' E 121°23'6609779.8
2016-May-16 05:28N 23°01' E 113°31'  
Track history (hours):
 
Tides and Currents Weather Stations Pressure Air Temp Water Temp Dewpoint Dewpoint Depression Visibility Wind Speed Wind Dir Waves Ship Positions

Graceful Lady

Last reported at 2016-May-26 04:32 UTC. Time now 2016-May-26 04:42 UTC.
Position N 23°06' E 113°27'.

Length 6 m.

Type: Pollution control. MMSI: 316014038.

Date/timePositionNaut miles runAvg speedWind from/ knotsBaromVisibWave heightAir tempDewpointWater temp
2016-May-26 04:32N 23°06' E 113°27'65925500.6
2016-May-26 04:31N 31°31' E 121°23'0 0.1
2016-May-26 03:33N 31°31' E 121°23'659139517.8
2016-May-26 03:33N 23°06' E 113°27'2551682.1
2016-May-26 03:24N 24°25' E 117°52'465546.8
2016-May-26 02:33N 31°31' E 121°23'65942353.9
2016-May-26 02:32N 23°06' E 113°27'659668.7
2016-May-26 01:33N 31°31' E 121°23'659182447.7
2016-May-26 01:33N 23°06' E 113°27'0 0.0
2016-May-26 00:34N 23°06' E 113°27'65911294.4
2016-May-26 00:30N 31°31' E 121°23'101542.1
2016-May-26 00:19N 29°54' E 121°59'39630299.5
2016-May-26 00:18N 24°25' E 117°52'255342.1
2016-May-25 23:33N 23°06' E 113°27'659169415.7
2016-May-25 23:33N 31°31' E 121°23'101736.6
2016-May-25 23:25N 29°54' E 121°59'3961859.1
2016-May-25 23:12N 24°25' E 117°52'465715.1
2016-May-25 22:33N 31°31' E 121°23'65991225.7
2016-May-25 22:33N 23°06' E 113°27'659664.0
2016-May-25 21:33N 31°31' E 121°23'6592957.3
2016-May-25 21:20N 23°06' E 113°27'61440918.4
2016-May-25 21:19N 29°54' E 121°59'614810.3
2016-May-25 20:33N 23°06' E 113°27'659131766.3
2016-May-25 20:33N 31°31' E 121°23'102738.5
2016-May-25 20:25N 29°54' E 121°59'102117.7
2016-May-25 19:33N 31°31' E 121°23'659112943.3
2016-May-25 19:33N 23°06' E 113°27'2551746.1
2016-May-25 19:24N 24°25' E 117°52'255302.7
2016-May-25 18:33N 23°06' E 113°27'659131766.3
2016-May-25 18:33N 31°31' E 121°23'4658757.7
2016-May-25 18:30N 24°25' E 117°52'3964684.5
2016-May-25 18:25N 29°54' E 121°59'614713.9
2016-May-25 17:33N 23°06' E 113°27'659215617.5
2016-May-25 17:33N 31°31' E 121°23'4658757.7
2016-May-25 17:30N 24°25' E 117°52'255271.9
2016-May-25 16:34N 23°06' E 113°27'65984707.5
2016-May-25 16:33N 31°31' E 121°23'4658578.0
2016-May-25 16:30N 24°25' E 117°52'3964669.1
2016-May-25 16:25N 29°54' E 121°59'102117.9
2016-May-25 15:33N 31°31' E 121°23'65945630.5
2016-May-25 15:32N 23°06' E 113°26'61425411.4
2016-May-25 15:31N 29°54' E 121°59'614640.3
2016-May-25 14:33N 23°06' E 113°26'659296594.0
2016-May-25 14:33N 31°31' E 121°23'0 0.0
2016-May-25 13:33N 31°31' E 121°23'65926660.1
2016-May-25 13:32N 23°06' E 113°26'6142886.1
2016-May-25 13:19N 29°54' E 121°59'102133.2
2016-May-25 12:33N 31°31' E 121°23'102736.9
2016-May-25 12:25N 29°54' E 121°59'61439478.7
2016-May-25 12:24N 23°06' E 113°26'0 0.0
2016-May-25 11:33N 23°06' E 113°26'659263646.4
2016-May-25 11:33N 31°31' E 121°23'102232.2
2016-May-25 11:07N 29°54' E 121°59'6141108.2
2016-May-25 10:34N 23°06' E 113°26'61413318.1
2016-May-25 10:31N 29°54' E 121°59'1028703.1
2016-May-25 10:30N 31°31' E 121°23'659695.0
2016-May-25 09:33N 23°06' E 113°26'659395458.7
2016-May-25 09:33N 31°31' E 121°23'0 0.0
2016-May-25 08:33N 31°31' E 121°23'4652950.0
2016-May-25 08:24N 24°25' E 117°52'465551.5
2016-May-25 07:33N 31°31' E 121°23'6598597.1
2016-May-25 07:28N 23°06' E 113°26'6141698.0
2016-May-25 07:07N 29°54' E 121°59'102180.7
2016-May-25 06:33N 31°31' E 121°23'66026694.8
2016-May-25 06:32N 23°01' E 113°31'61444215.5
2016-May-25 06:31N 29°54' E 121°59'39620057.7
2016-May-25 06:30N 24°25' E 117°52'465493.1
2016-May-25 05:33N 31°31' E 121°23'0 0.0
2016-May-25 04:24N 31°31' E 121°23'4654234.4
2016-May-25 04:17N 24°25' E 117°52'3965032.1
2016-May-25 04:13N 29°54' E 121°59'102153.2
2016-May-25 03:33N 31°31' E 121°23'4657889.6
2016-May-25 03:29N 24°25' E 117°52'4638418.1
2016-May-25 03:26N 31°23' E 121°37'0 0.1
2016-May-25 02:33N 31°23' E 121°37'144973.2
2016-May-25 02:33N 31°31' E 121°23'4651294.6
2016-May-25 02:11N 24°25' E 117°52'465725.6
2016-May-25 01:33N 31°31' E 121°23'14534.6
2016-May-25 01:32N 31°23' E 121°37'91807.8
2016-May-25 01:25N 29°54' E 121°59'91106.9
2016-May-25 00:34N 31°23' E 121°37'141912.8
2016-May-25 00:33N 31°31' E 121°23'0 0.0
2016-May-24 23:33N 31°31' E 121°23'14700.5
2016-May-24 23:32N 31°23' E 121°37'46311654.8
2016-May-24 23:29N 24°25' E 117°52'3961044.0
2016-May-24 23:07N 29°54' E 121°59'102180.8
2016-May-24 22:33N 31°31' E 121°23'14376.6
2016-May-24 22:31N 31°23' E 121°37'46319841.1
2016-May-24 22:29N 24°25' E 117°52'3961421.2
2016-May-24 22:13N 29°54' E 121°59'102153.3
2016-May-24 21:33N 31°31' E 121°23'14134.0
2016-May-24 21:27N 31°23' E 121°37'4638130.0
2016-May-24 21:23N 24°25' E 117°52'463556.5
2016-May-24 20:34N 31°23' E 121°37'141776.1
2016-May-24 20:33N 31°31' E 121°23'4657672.8
2016-May-24 20:29N 24°25' E 117°52'4701152.1
2016-May-24 20:05N 31°57' E 120°17'76144.8
2016-May-24 19:34N 31°23' E 121°37'141767.7
2016-May-24 19:33N 31°31' E 121°23'4651288.6
2016-May-24 19:11N 24°25' E 117°52'463732.9
2016-May-24 18:34N 31°23' E 121°37'141644.7
2016-May-24 18:33N 31°31' E 121°23'102428.0
2016-May-24 18:19N 29°54' E 121°59'90118.5
2016-May-24 17:33N 31°22' E 121°38'157824.6
2016-May-24 17:33N 31°31' E 121°23'1022629.4
2016-May-24 17:31N 29°54' E 121°59'3963221.9
2016-May-24 17:23N 24°25' E 117°52'461539.9
2016-May-24 16:32N 31°17' E 121°44'23122.2
2016-May-24 16:21N 31°31' E 121°23'0 0.0
2016-May-24 15:27N 31°31' E 121°23'102735.4
2016-May-24 15:19N 29°54' E 121°59'102133.3
2016-May-24 14:33N 31°31' E 121°23'0 0.0
2016-May-24 13:33N 31°31' E 121°23'1022687.0
2016-May-24 13:31N 29°54' E 121°59'102105.6
2016-May-24 12:33N 31°31' E 121°23'0 0.0
2016-May-24 11:33N 31°31' E 121°23'98411.4
2016-May-24 11:19N 29°56' E 121°53'98128.7
2016-May-24 10:33N 31°31' E 121°23'0 0.0
2016-May-24 09:27N 31°31' E 121°23'0 0.0
2016-May-24 08:27N 31°31' E 121°23'0 0.0
2016-May-24 07:33N 31°31' E 121°23'0 0.0
2016-May-24 06:33N 31°31' E 121°23'0 0.0
2016-May-24 05:33N 31°31' E 121°23'0 0.0
2016-May-24 04:33N 31°31' E 121°23'0 0.0
2016-May-24 03:33N 31°31' E 121°23'66976.3
2016-May-24 03:29N 30°41' E 122°13'6668.7
2016-May-24 02:32N 31°31' E 121°23'71968.1
2016-May-24 02:27N 30°34' E 122°13'4362426.3
2016-May-24 02:17N 24°25' E 117°52'465622.1
2016-May-24 01:32N 31°31' E 121°23'0 0.0
2016-May-24 00:32N 31°31' E 121°23'751675.2
2016-May-24 00:29N 30°31' E 122°15'6518278.4
2016-May-24 00:24N 22°58' E 113°32'6532053.7
2016-May-24 00:05N 31°58' E 120°26'56100.4
2016-May-23 23:32N 31°31' E 121°23'75665.5
2016-May-23 23:25N 30°30' E 122°15'7584.5
2016-May-23 22:32N 31°31' E 121°23'0 0.0
2016-May-23 21:11N 31°31' E 121°23'0 0.0
2016-May-23 20:32N 31°31' E 121°23'659638.5
2016-May-23 19:30N 23°03' E 113°31'65935940.0
2016-May-23 19:29N 31°31' E 121°23'102562.2
2016-May-23 19:18N 29°54' E 121°59'613825.3
2016-May-23 18:33N 23°03' E 113°31'65924454.2
2016-May-23 18:32N 31°31' E 121°23'23173.8
2016-May-23 18:24N 31°08' E 121°28'645763.5
2016-May-23 17:33N 23°02' E 113°31'66136049.1
2016-May-23 17:32N 31°07' E 121°55'3733095.9
2016-May-23 17:32N 31°31' E 121°23'20282.4
2016-May-23 17:28N 31°12' E 121°29'2426.0
2016-May-23 16:33N 31°07' E 121°55'661183108.7
2016-May-23 16:33N 23°02' E 113°31'66029324.0
2016-May-23 16:32N 31°31' E 121°23'17269.5
2016-May-23 16:28N 31°15' E 121°31'1096.0
2016-May-23 16:22N 31°23' E 121°36'2328.2
2016-May-23 15:32N 31°07' E 121°55'6611190198.8
2016-May-23 15:32N 23°02' E 113°31'660118759.9
2016-May-23 15:32N 31°31' E 121°23'15436.4
2016-May-23 15:30N 31°18' E 121°33'1515.7
2016-May-23 14:32N 31°31' E 121°23'1120227.6
2016-May-23 14:32N 31°21' E 121°30'6 5.7
2016-May-23 13:32N 31°27' E 121°29'3465.1
2016-May-23 13:32N 31°24' E 121°31'102182.5
2016-May-23 13:32N 31°31' E 121°23'0 0.0
2016-May-23 12:32N 31°31' E 121°23'66040260.9
2016-May-23 12:31N 23°02' E 113°31'6643537.0
2016-May-23 12:20N 32°01' E 120°47'4354.4
2016-May-23 11:32N 31°31' E 121°23'251190.8
2016-May-23 11:31N 31°15' E 121°46'66214702.9
2016-May-23 11:28N 23°02' E 113°31'661726.4
2016-May-23 10:33N 31°21' E 121°38'66137767.5
2016-May-23 10:32N 23°02' E 113°31'659113035.6
2016-May-23 10:32N 31°31' E 121°23'659677.2
2016-May-23 09:33N 23°03' E 113°31'65924712.5
2016-May-23 09:32N 31°31' E 121°23'659677.1
2016-May-23 08:33N 23°03' E 113°31'6591186276.0
2016-May-23 08:33N 31°24' E 121°31'10379.3
2016-May-23 08:32N 31°31' E 121°23'55117.5
2016-May-23 08:04N 31°59' E 120°27'6511260.1
2016-May-23 07:33N 23°03' E 113°31'65957863.8
2016-May-23 07:32N 31°31' E 121°23'10488.2
2016-May-23 07:31N 31°22' E 121°30'656690.1
2016-May-23 06:33N 23°03' E 113°31'65923258.1
2016-May-23 06:32N 31°31' E 121°23'18153.0
2016-May-23 06:25N 31°43' E 121°07'291022.3
2016-May-23 06:23N 31°22' E 121°30'656795.1
2016-May-23 05:33N 23°03' E 113°31'65925509.0
2016-May-23 05:32N 31°31' E 121°23'10424.4
2016-May-23 05:30N 31°22' E 121°30'656675.5
2016-May-23 04:32N 23°03' E 113°31'659158154.9
2016-May-23 04:32N 31°31' E 121°23'6175.8
2016-May-23 04:30N 31°35' E 121°19'16481.3
2016-May-23 04:28N 31°22' E 121°30'656718.9
2016-May-23 03:33N 23°03' E 113°31'66062520.4
2016-May-23 03:32N 31°31' E 121°24'199.8
2016-May-23 03:32N 31°31' E 121°23'1051.9
2016-May-23 03:20N 31°22' E 121°30'1013.1
2016-May-23 02:32N 31°31' E 121°23'65916246.3
2016-May-23 02:29N 23°03' E 113°31'66020470.9
2016-May-23 02:27N 31°27' E 121°29'52169.7
2016-May-23 02:09N 32°01' E 120°43'5591.0
2016-May-23 01:32N 31°23' E 121°30'101251.0
2016-May-23 01:32N 31°31' E 121°23'659215633.1
2016-May-23 01:32N 23°03' E 113°31'65627471.9
2016-May-23 01:30N 31°22' E 121°30'656693.5
2016-May-23 00:33N 23°03' E 113°31'65924205.7
2016-May-23 00:32N 31°31' E 121°23'101445.9
2016-May-23 00:31N 31°22' E 121°30'654.3
2016-May-23 00:24N 31°17' E 121°34'4 5.2
2016-May-22 23:32N 31°14' E 121°30'182014.9
2016-May-22 23:32N 31°31' E 121°23'66236648.7
2016-May-22 23:31N 22°59' E 113°32'662673.1
2016-May-22 22:32N 31°31' E 121°23'1090.6
2016-May-22 22:25N 31°22' E 121°30'1011.8
2016-May-22 21:32N 31°31' E 121°23'0 0.0
2016-May-22 20:32N 31°31' E 121°23'35319.0
2016-May-22 20:25N 30°57' E 121°12'5 5.7
2016-May-22 19:33N 30°58' E 121°18'33268.4
2016-May-22 19:26N 31°31' E 121°23'3135.3
2016-May-22 18:33N 30°60' E 121°26'311131.4
2016-May-22 18:32N 31°31' E 121°23'0 0.0
2016-May-22 17:32N 31°31' E 121°23'2152.5
2016-May-22 17:08N 31°45' E 121°05'5 8.4
2016-May-22 16:33N 31°42' E 121°10'16879.5
2016-May-22 16:32N 31°31' E 121°23'1958.5
2016-May-22 16:12N 31°12' E 121°30'82126.5
2016-May-22 15:33N 29°54' E 121°59'1025076.2
2016-May-22 15:32N 31°31' E 121°23'512.9
2016-May-22 15:08N 31°35' E 121°19'1830.5
2016-May-22 14:32N 31°20' E 121°32'132323.7
2016-May-22 14:32N 31°31' E 121°23'0 0.0
2016-May-22 13:32N 31°31' E 121°23'1048.2
2016-May-22 13:20N 31°23' E 121°30'1012.3
2016-May-22 12:32N 31°31' E 121°23'1092.3
2016-May-22 12:25N 31°23' E 121°30'1011.0
2016-May-22 11:32N 31°31' E 121°23'1024.0
2016-May-22 11:07N 31°23' E 121°30'2237.5
2016-May-22 10:32N 31°01' E 121°28'304518.6
2016-May-22 10:32N 31°31' E 121°23'101218.4
2016-May-22 10:31N 31°23' E 121°30'661179.6
2016-May-22 10:28N 30°30' E 122°16'5458.7
2016-May-22 09:33N 30°60' E 121°23'24724.5
2016-May-22 09:31N 31°23' E 121°30'10108.4
2016-May-22 09:26N 31°31' E 121°23'0 0.0
2016-May-22 08:32N 31°31' E 121°23'10930.3
2016-May-22 08:31N 31°23' E 121°30'212250.4
2016-May-22 08:31N 31°02' E 121°29'0 0.1
2016-May-22 07:33N 31°01' E 121°29'301147.6
2016-May-22 07:32N 31°31' E 121°23'10338.1
2016-May-22 07:30N 31°23' E 121°30'10 9.1
2016-May-22 06:26N 31°31' E 121°23'71890.4
2016-May-22 06:21N 30°34' E 122°13'61405.7
2016-May-22 06:12N 31°23' E 121°30'0 0.5
2016-May-22 05:33N 31°23' E 121°30'10352.2
2016-May-22 05:32N 31°31' E 121°23'664839.6
2016-May-22 05:31N 30°40' E 122°12'43620367.0
2016-May-22 05:30N 37°50' E 120°44'389415.3
2016-May-22 04:33N 31°23' E 121°30'5214369.6
2016-May-22 04:33N 32°01' E 120°49'421680.8
2016-May-22 04:32N 31°31' E 121°23'10332.2
2016-May-22 04:30N 31°23' E 121°30'0 0.4
2016-May-22 03:33N 31°23' E 121°30'10138.7
2016-May-22 03:29N 31°31' E 121°23'1031.3
2016-May-22 03:10N 31°23' E 121°30'224.4
2016-May-22 03:05N 31°24' E 121°32'1018.5
2016-May-22 02:32N 31°31' E 121°23'1022.6
2016-May-22 02:06N 31°23' E 121°30'61455.0
2016-May-22 02:06N 31°24' E 121°37'46433380.8
2016-May-22 02:05N 24°24' E 117°53'464882.6
2016-May-22 01:33N 31°24' E 121°37'46355507.6
2016-May-22 01:33N 24°24' E 117°57'46429293.4
2016-May-22 01:32N 31°31' E 121°23'332.1
2016-May-22 01:26N 31°32' E 121°19'13426.4
2016-May-22 01:24N 31°23' E 121°30'2125.2
2016-May-22 00:33N 31°39' E 121°13'46583693.7
2016-May-22 00:33N 24°25' E 118°04'45959036.6
2016-May-22 00:32N 31°24' E 121°37'141654.1
2016-May-22 00:32N 31°31' E 121°23'1059.2
2016-May-22 00:22N 31°23' E 121°30'6 7.5
2016-May-21 23:33N 31°24' E 121°37'369354.1
2016-May-21 23:33N 30°50' E 121°22'42495365.8
2016-May-21 23:33N 24°21' E 118°11'46228663.4
2016-May-21 23:32N 31°31' E 121°23'1058.5
2016-May-21 23:22N 31°23' E 121°30'1254.9
2016-May-21 23:09N 31°18' E 121°43'3152.9
2016-May-21 22:33N 30°53' E 121°22'291677.0
2016-May-21 22:32N 31°21' E 121°31'63560.9
2016-May-21 22:32N 31°24' E 121°37'45858903.4
2016-May-21 22:32N 24°21' E 118°17'45765743.8
2016-May-21 22:31N 31°22' E 121°37'6179.3
2016-May-21 22:29N 31°23' E 121°30'10857.8
2016-May-21 22:29N 31°31' E 121°23'3537.8
2016-May-21 21:34N 30°56' E 121°20'316275.4
2016-May-21 21:33N 31°24' E 121°37'14570.4
2016-May-21 21:32N 31°31' E 121°23'4571644599.4
2016-May-21 21:32N 24°22' E 118°23'4452283.0
2016-May-21 21:20N 31°15' E 121°30'855.1
2016-May-21 21:11N 31°23' E 121°30'6 9.4
2016-May-21 20:33N 31°24' E 121°37'14744.0
2016-May-21 20:32N 31°31' E 121°23'4522695.2
2016-May-21 20:22N 24°25' E 118°31'44780470.0
2016-May-21 20:21N 31°23' E 121°30'0 0.0
2016-May-21 19:33N 31°23' E 121°30'6947.4
2016-May-21 19:33N 31°24' E 121°37'14702.1
2016-May-21 19:32N 31°31' E 121°23'0 0.0
2016-May-21 18:32N 31°31' E 121°23'5409109386.1
2016-May-21 18:29N 48°33' W 123°01'540461953.8
2016-May-21 18:24N 31°24' E 121°37'6939.9
2016-May-21 18:23N 31°23' E 121°30'6 7.1
2016-May-21 17:33N 31°24' E 121°37'14698.8
2016-May-21 17:32N 31°31' E 121°23'10230.7
2016-May-21 17:29N 31°23' E 121°30'540835922.6
2016-May-21 17:20N 48°34' W 123°02'54076703.2
2016-May-21 16:32N 31°31' E 121°23'4281540056.6
2016-May-21 16:32N 24°44' E 118°53'42554682.7
2016-May-21 16:31N 31°24' E 121°37'635.3
2016-May-21 16:21N 31°23' E 121°30'6 7.3
2016-May-21 15:32N 31°24' E 121°37'141836.3
2016-May-21 15:32N 31°31' E 121°23'42112319.0
2016-May-21 15:30N 24°50' E 118°58'41536480.2
2016-May-21 15:29N 31°23' E 121°30'6 6.4
2016-May-21 14:33N 31°24' E 121°37'14556.9
2016-May-21 14:32N 31°31' E 121°23'102226.6
2016-May-21 14:31N 31°23' E 121°30'6 6.2
2016-May-21 13:33N 31°24' E 121°37'14739.5
2016-May-21 13:32N 31°31' E 121°23'1047.8
2016-May-21 13:19N 31°23' E 121°30'1012.4
2016-May-21 12:32N 31°31' E 121°23'144132.5
2016-May-21 12:32N 31°24' E 121°37'61560.9
2016-May-21 12:31N 31°23' E 121°30'10 9.9
2016-May-21 11:32N 31°31' E 121°23'142372.1
2016-May-21 11:31N 31°24' E 121°37'660.2
2016-May-21 11:25N 31°23' E 121°30'6 7.0
2016-May-21 10:33N 31°24' E 121°37'6734.1
2016-May-21 10:33N 31°23' E 121°30'10611.4
2016-May-21 10:32N 31°31' E 121°23'659678.7
2016-May-21 09:34N 23°04' E 113°30'65746376.3
2016-May-21 09:33N 31°23' E 121°30'63670.7
2016-May-21 09:33N 31°24' E 121°37'141016.0
2016-May-21 09:32N 31°31' E 121°23'3851225.4
2016-May-21 09:13N 25°18' E 119°32'382578.1
2016-May-21 08:33N 31°24' E 121°37'662397103.3
2016-May-21 08:33N 23°06' E 113°27'65928922.7
2016-May-21 08:32N 31°31' E 121°23'1024.1
2016-May-21 08:07N 31°23' E 121°30'6571170.9
2016-May-21 07:33N 23°06' E 113°27'66245819.6
2016-May-21 07:33N 31°24' E 121°37'141040.9
2016-May-21 07:32N 31°31' E 121°23'1052.3
2016-May-21 07:20N 31°23' E 121°30'657839.0
2016-May-21 06:33N 23°06' E 113°27'66232639.1
2016-May-21 06:32N 31°24' E 121°37'141722.9
2016-May-21 06:32N 31°31' E 121°23'1087.2
2016-May-21 06:25N 31°23' E 121°30'25151.2
2016-May-21 06:15N 30°59' E 121°22'4 5.8
2016-May-21 05:33N 31°00' E 121°26'63862103.0
2016-May-21 05:33N 23°06' E 113°27'65776297.3
2016-May-21 05:32N 31°23' E 121°30'101151.4
2016-May-21 05:32N 31°31' E 121°23'141711.9
2016-May-21 05:31N 31°24' E 121°37'2121.3
2016-May-21 04:33N 31°05' E 121°28'643105168.7
2016-May-21 04:33N 23°06' E 113°27'662238244.6
2016-May-21 04:33N 31°24' E 121°37'6516.3
2016-May-21 04:32N 31°23' E 121°30'101274.8
2016-May-21 04:32N 31°31' E 121°23'659675.9
2016-May-21 03:33N 23°06' E 113°27'662794148.6
2016-May-21 03:33N 31°24' E 121°37'35237297.5
2016-May-21 03:33N 25°47' E 119°40'3565517.0
2016-May-21 03:29N 31°31' E 121°23'20319.0
2016-May-21 03:25N 31°12' E 121°28'1137.3
2016-May-21 03:07N 31°23' E 121°30'54119734.3
2016-May-21 02:33N 48°32' W 123°00'54051621379.5
2016-May-21 02:33N 31°24' E 121°37'104041.2
2016-May-21 02:33N 31°15' E 121°31'17752.3
2016-May-21 02:32N 31°31' E 121°23'659263528.8
2016-May-21 02:32N 23°06' E 113°27'0 0.0
2016-May-21 01:33N 23°06' E 113°27'65771622.7
2016-May-21 01:33N 31°19' E 121°33'5657.6
2016-May-21 01:32N 31°24' E 121°37'14127.6
2016-May-21 01:26N 31°31' E 121°23'660755.2
2016-May-21 00:33N 23°05' E 113°26'657215169.6
2016-May-21 00:33N 31°22' E 121°30'61403.5
2016-May-21 00:33N 31°24' E 121°37'14727.4
2016-May-21 00:32N 31°31' E 121°23'660677.5
2016-May-20 23:33N 23°05' E 113°26'66048468.1
2016-May-20 23:33N 31°26' E 121°29'7256.7
2016-May-20 23:31N 31°24' E 121°37'14162.0
2016-May-20 23:26N 31°31' E 121°23'1 0.9
2016-May-20 22:33N 31°30' E 121°23'659215734.2
2016-May-20 22:33N 23°05' E 113°26'66031668.2
2016-May-20 22:32N 31°31' E 121°23'141557.4
2016-May-20 22:31N 31°24' E 121°37'1920.2
2016-May-20 21:33N 31°34' E 121°18'66095010.2
2016-May-20 21:33N 23°05' E 113°26'663238586.9
2016-May-20 21:33N 31°24' E 121°37'14735.1
2016-May-20 21:32N 31°31' E 121°23'102486.0
2016-May-20 21:19N 29°54' E 121°59'92119.7
2016-May-20 20:33N 31°24' E 121°37'66379529.0
2016-May-20 20:33N 23°05' E 113°26'660264184.4
2016-May-20 20:33N 31°39' E 121°13'12872.2
2016-May-20 20:32N 31°31' E 121°23'609029.1
2016-May-20 20:31N 31°58' E 120°20'150593.0
2016-May-20 20:16N 29°54' E 121°59'615862.8
2016-May-20 19:33N 23°05' E 113°26'66379529.5
2016-May-20 19:33N 31°24' E 121°37'14714.1
2016-May-20 19:32N 31°31' E 121°23'19232.3
2016-May-20 19:27N 31°43' E 121°07'3236.1
2016-May-20 18:33N 31°24' E 121°37'6632385900.9
2016-May-20 18:33N 23°05' E 113°26'662476338.1
2016-May-20 18:33N 32°00' E 120°44'441918.7
2016-May-20 18:32N 31°31' E 121°23'1021716.2
2016-May-20 18:28N 29°54' E 121°59'1201675.3
2016-May-20 18:24N 31°44' E 121°04'659775.5
2016-May-20 17:33N 23°05' E 113°26'66035985.2
2016-May-20 17:32N 31°31' E 121°23'143546.8
2016-May-20 17:32N 31°24' E 121°37'34414.1
2016-May-20 17:27N 31°44' E 121°04'30146.4
2016-May-20 17:14N 32°00' E 120°34'6594.5
2016-May-20 16:33N 31°24' E 121°37'663113606.0
2016-May-20 16:33N 23°05' E 113°26'66050532.7
2016-May-20 16:32N 31°31' E 121°23'561608.3
2016-May-20 16:30N 32°02' E 120°28'36323.3
2016-May-20 16:23N 31°44' E 121°04'659784.7
2016-May-20 15:33N 23°05' E 113°26'6631192871.4
2016-May-20 15:33N 31°24' E 121°37'141033.8
2016-May-20 15:32N 31°31' E 121°23'213101.9
2016-May-20 15:31N 31°44' E 121°04'42524.6
2016-May-20 15:27N 31°57' E 120°17'8 9.5
2016-May-20 14:33N 31°56' E 120°08'640383765.8
2016-May-20 14:33N 23°05' E 113°26'659139629.2
2016-May-20 14:33N 31°44' E 121°04'3424744.1
2016-May-20 14:33N 31°24' E 121°37'14719.0
2016-May-20 14:32N 31°31' E 121°23'7981.8
2016-May-20 13:33N 32°02' E 119°57'936449.5
2016-May-20 13:33N 31°24' E 121°37'141011.8
2016-May-20 13:32N 31°31' E 121°23'21283.7
2016-May-20 13:27N 31°44' E 121°04'3437.4
2016-May-20 12:32N 31°24' E 121°37'141709.3
2016-May-20 12:32N 31°31' E 121°23'66021591.6
2016-May-20 12:30N 23°05' E 113°26'65911304.4
2016-May-20 12:26N 31°44' E 121°04'3088.5
2016-May-20 12:06N 31°23' E 121°30'6581175.7
2016-May-20 11:32N 23°05' E 113°27'663113582.5
2016-May-20 11:32N 31°24' E 121°37'146222.8
2016-May-20 11:32N 31°31' E 121°23'21744.9
2016-May-20 11:30N 31°44' E 121°04'1201468.9
2016-May-20 11:25N 29°54' E 121°59'102113.9
2016-May-20 10:32N 31°31' E 121°23'66022831.0
2016-May-20 10:30N 23°05' E 113°27'663340745.2
2016-May-20 10:30N 31°24' E 121°37'4433347.0
2016-May-20 10:22N 38°46' E 121°33'10301272.6
2016-May-20 09:33N 23°04' E 113°26'664298627.7
2016-May-20 09:33N 31°24' E 121°37'14566.0
2016-May-20 09:32N 31°31' E 121°23'3816260.5
2016-May-20 09:28N 37°50' E 120°44'4091117.5
2016-May-20 09:06N 31°03' E 121°28'3 5.3
2016-May-20 08:33N 31°01' E 121°27'236432.3
2016-May-20 08:33N 31°22' E 121°39'16846.2
2016-May-20 08:32N 31°31' E 121°23'0 0.0
2016-May-20 07:32N 31°31' E 121°23'2196.0
2016-May-20 07:19N 31°18' E 121°43'77393.9
2016-May-20 07:07N 31°59' E 120°26'5695.6
2016-May-20 06:32N 31°31' E 121°23'1010.5
2016-May-20 05:33N 31°22' E 121°30'10592.1
2016-May-20 05:32N 31°31' E 121°23'0 0.0
2016-May-20 04:32N 31°31' E 121°23'1088.1
2016-May-20 04:25N 31°22' E 121°30'1011.8
2016-May-20 03:32N 31°31' E 121°23'101868.7
2016-May-20 03:31N 31°22' E 121°30'931350.5
2016-May-20 03:27N 29°53' E 122°04'103111.7
2016-May-20 02:32N 31°31' E 121°23'103399.2
2016-May-20 02:32N 31°22' E 121°30'34216.0
2016-May-20 02:22N 31°47' E 121°02'3441.6
2016-May-20 01:33N 31°22' E 121°30'10747.8
2016-May-20 01:32N 31°31' E 121°23'0 0.1
2016-May-20 00:32N 31°31' E 121°23'65588.9
2016-May-20 00:25N 31°56' E 120°12'152577.8
2016-May-20 00:09N 29°54' E 121°59'102162.1
2016-May-19 23:32N 31°31' E 121°23'1021373.9
2016-May-19 23:27N 29°54' E 121°59'102109.6
2016-May-19 22:32N 31°31' E 121°23'70155.5
2016-May-19 22:05N 30°36' E 122°14'70127.0
2016-May-19 21:32N 31°31' E 121°23'102272.1
2016-May-19 21:09N 29°54' E 121°59'102162.1
2016-May-19 20:32N 31°31' E 121°23'0 0.0
2016-May-19 19:32N 31°31' E 121°23'1024299.4
2016-May-19 19:30N 29°54' E 121°59'1481193.3
2016-May-19 19:23N 31°59' E 120°26'5665.5
2016-May-19 18:32N 31°31' E 121°23'102585.6
2016-May-19 18:21N 29°54' E 121°59'102109.6
2016-May-19 17:26N 31°31' E 121°23'102821.3
2016-May-19 17:18N 29°54' E 121°59'39395.7
2016-May-19 17:12N 30°31' E 122°15'1281983.2
2016-May-19 17:09N 31°59' E 120°26'5691.2
2016-May-19 16:32N 31°31' E 121°23'56430.3
2016-May-19 16:24N 31°59' E 120°26'5664.2
2016-May-19 15:32N 31°31' E 121°23'562137.4
2016-May-19 15:30N 31°59' E 120°26'148425.4
2016-May-19 15:09N 29°54' E 121°59'102161.9
2016-May-19 14:32N 31°31' E 121°23'75396.5
2016-May-19 14:20N 30°31' E 122°15'39464.4
2016-May-19 14:15N 29°54' E 121°59'6204043.0
2016-May-19 14:06N 23°02' E 113°21'6201134.0
2016-May-19 13:33N 29°54' E 121°59'61611542.6
2016-May-19 13:30N 23°04' E 113°26'66129729.6
2016-May-19 13:29N 31°31' E 121°23'56938.9
2016-May-19 13:25N 31°59' E 120°26'1284664.3
2016-May-19 13:24N 30°31' E 122°15'1172490.9
2016-May-19 13:21N 32°01' E 120°48'4251.6
2016-May-19 12:32N 31°31' E 121°23'56437.7
2016-May-19 12:24N 31°59' E 120°26'148174.9
2016-May-19 11:33N 29°54' E 121°59'1023888.2
2016-May-19 11:32N 31°31' E 121°23'562450.4
2016-May-19 11:30N 31°59' E 120°26'5657.1
2016-May-19 10:32N 31°31' E 121°23'102584.8
2016-May-19 10:21N 29°54' E 121°59'1481415.3
2016-May-19 10:15N 31°59' E 120°26'1281825.0
2016-May-19 10:11N 30°31' E 122°15'75114.9
2016-May-19 09:32N 31°31' E 121°23'75410.4
2016-May-19 09:21N 30°31' E 122°15'3949.6
2016-May-19 08:33N 29°54' E 121°59'1023888.2
2016-May-19 08:32N 31°31' E 121°23'757505.1
2016-May-19 08:31N 30°31' E 122°15'922592.8
2016-May-19 08:29N 31°42' E 121°08'1718.2
2016-May-19 07:32N 31°31' E 121°23'751452.5
2016-May-19 07:29N 30°31' E 122°15'0 0.0
2016-May-19 06:33N 30°31' E 122°15'752701.7
2016-May-19 06:32N 31°31' E 121°23'73364.8
2016-May-19 06:20N 31°58' E 120°04'19436.0
2016-May-19 06:17N 31°59' E 120°26'148820.1
2016-May-19 06:06N 29°54' E 121°59'102176.0
2016-May-19 05:32N 31°31' E 121°23'1818.4
2016-May-19 04:33N 31°21' E 121°41'18875.3
2016-May-19 04:32N 31°31' E 121°23'755873.2
2016-May-19 04:31N 30°31' E 122°15'1361679.7
2016-May-19 04:26N 31°57' E 120°13'153545.4
2016-May-19 04:09N 29°54' E 121°59'102162.3
2016-May-19 03:32N 31°31' E 121°23'751986.5
2016-May-19 03:30N 30°31' E 122°15'13440175.6
2016-May-19 03:29N 31°57' E 120°15'27114.6
2016-May-19 03:15N 32°00' E 120°47'4358.9
2016-May-19 02:32N 31°31' E 121°23'752755.2
2016-May-19 02:30N 30°31' E 122°15'39845.7
2016-May-19 02:27N 29°54' E 121°59'123133.6
2016-May-19 01:32N 31°47' E 121°03'243528.0
2016-May-19 01:32N 31°31' E 121°23'563587.6
2016-May-19 01:31N 31°59' E 120°26'1286596.4
2016-May-19 01:30N 30°31' E 122°15'130820.9
2016-May-19 01:20N 31°58' E 120°23'5871.8
2016-May-19 00:32N 31°31' E 121°23'75626.4
2016-May-19 00:25N 30°31' E 122°15'7585.2
2016-May-18 23:32N 31°31' E 121°23'101314.7
2016-May-18 23:12N 29°54' E 121°59'39441.6
2016-May-18 23:07N 30°31' E 122°15'75127.3
2016-May-18 22:32N 31°31' E 121°23'75422.2
2016-May-18 22:21N 30°31' E 122°15'0 0.0
2016-May-18 21:33N 30°31' E 122°15'753372.4
2016-May-18 21:32N 31°31' E 121°23'56381.6
2016-May-18 21:23N 31°59' E 120°26'6546343.4
2016-May-18 21:17N 22°58' E 113°32'7 9.1
2016-May-18 20:33N 23°04' E 113°29'65132545.3
2016-May-18 20:32N 30°36' E 122°14'7012530.3
2016-May-18 20:32N 31°31' E 121°23'56613.1
2016-May-18 20:26N 31°59' E 120°26'5661.3
2016-May-18 19:32N 31°31' E 121°23'66014933.4
2016-May-18 19:29N 23°05' E 113°26'6509255.1
2016-May-18 19:25N 31°59' E 120°26'650749.0
2016-May-18 18:33N 23°05' E 113°26'66038924.8
2016-May-18 18:32N 31°31' E 121°23'56136.9
2016-May-18 18:07N 31°59' E 120°26'6501152.8
2016-May-18 17:33N 23°05' E 113°26'65923506.5
2016-May-18 17:32N 31°31' E 121°23'1024512.2
2016-May-18 17:30N 29°54' E 121°59'614632.2
2016-May-18 16:32N 23°06' E 113°27'65911682.8
2016-May-18 16:29N 31°31' E 121°23'38219.1
2016-May-18 16:18N 31°06' E 121°57'958758.1
2016-May-18 16:18N 31°58' E 120°24'210.3
2016-May-18 16:05N 31°59' E 120°26'6501220.7
2016-May-18 15:33N 23°06' E 113°27'65923716.0
2016-May-18 15:32N 31°31' E 121°23'1144235.6
2016-May-18 15:30N 29°42' E 122°02'89552.1
2016-May-18 15:21N 31°10' E 121°51'7696.9
2016-May-18 14:33N 29°54' E 121°59'61469033.2
2016-May-18 14:33N 23°06' E 113°27'6595606.6
2016-May-18 14:26N 31°31' E 121°23'1092369.4
2016-May-18 14:23N 29°48' E 122°05'614729.6
2016-May-18 13:33N 23°06' E 113°27'65066826.4
2016-May-18 13:32N 31°59' E 120°26'5628702.7
2016-May-18 13:32N 31°31' E 121°23'105641.5
2016-May-18 13:22N 29°53' E 122°08'620756.8
2016-May-18 12:33N 23°06' E 113°27'65937056.3
2016-May-18 12:32N 31°31' E 121°23'567176.1
2016-May-18 12:31N 31°59' E 120°26'1484526.0
2016-May-18 12:29N 29°56' E 122°04'1236.6
2016-May-18 12:09N 29°57' E 121°50'1016.0
2016-May-18 11:34N 30°00' E 122°00'61969613.7
2016-May-18 11:33N 23°06' E 113°27'65932938.2
2016-May-18 11:32N 31°31' E 121°23'561445.7
2016-May-18 11:29N 31°59' E 120°26'650690.2
2016-May-18 10:33N 23°06' E 113°27'65932488.5
2016-May-18 10:32N 31°31' E 121°23'659670.1
2016-May-18 09:33N 23°06' E 113°27'65939527.6
2016-May-18 09:32N 31°31' E 121°23'56505.3
2016-May-18 09:25N 31°59' E 120°26'74218.3
2016-May-18 09:05N 31°20' E 121°40'6611260.0
2016-May-18 08:33N 23°06' E 113°27'660237529.5
2016-May-18 08:33N 31°23' E 121°35'13537.5
2016-May-18 08:32N 31°31' E 121°23'659669.2
2016-May-18 07:33N 23°06' E 113°27'65941605.9
2016-May-18 07:32N 31°31' E 121°23'659635.6
2016-May-18 06:30N 23°06' E 113°27'65910311.2
2016-May-18 06:26N 31°31' E 121°23'102342.5
2016-May-18 06:08N 29°54' E 121°59'6141059.6
2016-May-18 05:33N 23°06' E 113°27'65927259.6
2016-May-18 05:32N 31°31' E 121°23'659667.7
2016-May-18 04:33N 23°06' E 113°27'65950459.6
2016-May-18 04:32N 31°31' E 121°23'69262.7
2016-May-18 04:16N 30°38' E 122°14'652913.9
2016-May-18 03:33N 23°06' E 113°27'6592938.8
2016-May-18 03:20N 31°31' E 121°23'659847.6
2016-May-18 02:33N 23°05' E 113°26'65924991.4
2016-May-18 02:32N 31°31' E 121°23'0 0.0
2016-May-18 01:23N 31°31' E 121°23'0 0.0
2016-May-18 00:32N 31°31' E 121°23'0 0.0
2016-May-17 23:26N 31°31' E 121°23'41114.6
2016-May-17 23:04N 31°05' E 122°00'4175.9
2016-May-17 22:32N 31°31' E 121°23'0 0.1
2016-May-17 21:32N 31°31' E 121°23'0 0.0
2016-May-17 20:32N 31°31' E 121°23'0 0.0
2016-May-17 19:32N 31°31' E 121°23'1256.3
2016-May-17 19:19N 31°23' E 121°34'1215.6
2016-May-17 18:32N 31°31' E 121°23'5207.5
2016-May-17 18:30N 31°27' E 121°27'8 8.1
2016-May-17 17:33N 31°32' E 121°20'390.2
2016-May-17 17:32N 31°31' E 121°23'1010.2
2016-May-17 16:33N 31°38' E 121°15'10306.9
2016-May-17 16:32N 31°31' E 121°23'102418.2
2016-May-17 16:17N 29°54' E 121°59'102134.1
2016-May-17 15:32N 31°31' E 121°23'0 0.0
2016-May-17 14:32N 31°31' E 121°23'102346.8
2016-May-17 14:14N 29°54' E 121°59'150799.2
2016-May-17 14:03N 31°58' E 120°21'150292.2
2016-May-17 13:32N 29°54' E 121°59'10215890.9
2016-May-17 13:32N 31°31' E 121°23'16218.0
2016-May-17 13:27N 31°42' E 121°10'6 7.1
2016-May-17 12:33N 31°38' E 121°16'10375.0
2016-May-17 12:32N 31°31' E 121°23'59188.8
2016-May-17 12:13N 31°58' E 120°21'5686.3
2016-May-17 11:34N 31°33' E 121°20'3102.0
2016-May-17 11:32N 31°31' E 121°23'70355.1
2016-May-17 11:20N 30°35' E 122°12'5 6.3
2016-May-17 10:33N 30°40' E 122°12'6375510.2
2016-May-17 10:33N 31°30' E 121°26'624890.9
2016-May-17 10:32N 31°58' E 120°21'599723.9
2016-May-17 10:32N 31°31' E 121°23'1021087.7
2016-May-17 10:26N 29°54' E 121°59'102112.0
2016-May-17 09:32N 31°31' E 121°23'91734.6
2016-May-17 09:31N 31°25' E 121°31'9 9.2
2016-May-17 08:32N 31°31' E 121°23'102417.7
2016-May-17 08:17N 29°54' E 121°59'861843.7
2016-May-17 08:14N 31°17' E 121°34'656962.2
2016-May-17 07:33N 23°01' E 113°32'6145046.1
2016-May-17 07:26N 29°54' E 121°59'10240607.7
2016-May-17 07:26N 31°31' E 121°23'19823.6
2016-May-17 07:24N 31°13' E 121°30'651764.5
2016-May-17 06:33N 23°02' E 113°31'6608480.2
2016-May-17 06:29N 31°31' E 121°23'25292.4
2016-May-17 06:24N 31°06' E 121°28'6 6.6
2016-May-17 05:33N 31°01' E 121°28'6408289.7
2016-May-17 05:29N 23°02' E 113°31'6604405.3
2016-May-17 05:20N 31°31' E 121°23'591243.8
2016-May-17 05:17N 31°58' E 120°21'648881.0
2016-May-17 04:33N 23°02' E 113°31'66040938.2
2016-May-17 04:32N 31°31' E 121°23'59211.0
2016-May-17 04:15N 31°58' E 120°21'766715.2
2016-May-17 04:14N 31°21' E 121°39'6 8.0
2016-May-17 03:32N 31°23' E 121°33'66095019.9
2016-May-17 03:31N 23°02' E 113°31'66014478.0
2016-May-17 03:29N 31°31' E 121°23'59592.6
2016-May-17 03:23N 31°58' E 120°21'648789.4
2016-May-17 02:33N 23°02' E 113°31'6608360.3
2016-May-17 02:29N 31°31' E 121°23'59164.0
2016-May-17 02:07N 32°03' E 120°26'80141.3
2016-May-17 01:33N 30°59' E 121°22'635285880.0
2016-May-17 01:33N 23°02' E 113°31'66028606.2
2016-May-17 01:32N 31°31' E 121°23'660670.5
2016-May-17 00:33N 23°01' E 113°31'66010065.8
2016-May-17 00:29N 31°31' E 121°23'660705.9
2016-May-16 23:33N 23°01' E 113°32'6588286.7
2016-May-16 23:28N 32°01' E 120°37'491350.1
2016-May-16 23:26N 31°31' E 121°23'660738.3
2016-May-16 22:32N 23°01' E 113°32'660103264.7
2016-May-16 22:32N 31°31' E 121°23'45153.0
2016-May-16 22:14N 32°01' E 120°44'662980.3
2016-May-16 21:33N 23°01' E 113°32'66022197.1
2016-May-16 21:32N 31°31' E 121°23'660680.0
2016-May-16 20:33N 23°01' E 113°32'6608275.6
2016-May-16 20:29N 31°31' E 121°23'660606.2
2016-May-16 19:23N 23°01' E 113°32'66059377.2
2016-May-16 19:23N 31°31' E 121°23'660802.4
2016-May-16 18:33N 23°01' E 113°32'66023285.2
2016-May-16 18:32N 31°31' E 121°23'660674.9
2016-May-16 17:33N 23°01' E 113°32'66029322.3
2016-May-16 17:32N 31°31' E 121°23'596908.1
2016-May-16 17:31N 31°58' E 120°21'648669.1
2016-May-16 16:33N 23°01' E 113°32'6609099.7
2016-May-16 16:29N 31°31' E 121°23'660717.1
2016-May-16 15:33N 23°01' E 113°32'66021991.5
2016-May-16 15:32N 31°31' E 121°23'660664.9
2016-May-16 14:32N 23°02' E 113°31'66087970.3
2016-May-16 14:32N 31°31' E 121°23'660672.3
2016-May-16 13:33N 23°02' E 113°31'66035450.2
2016-May-16 13:32N 31°31' E 121°23'660679.2
2016-May-16 12:33N 23°01' E 113°31'6608452.2
2016-May-16 12:29N 31°31' E 121°23'59205.7
2016-May-16 12:11N 31°58' E 120°21'5989.6
2016-May-16 11:32N 31°31' E 121°23'66031245.2
2016-May-16 11:30N 23°01' E 113°32'6485139.7
2016-May-16 11:23N 31°58' E 120°21'648786.7
2016-May-16 10:33N 23°01' E 113°32'66023280.5
2016-May-16 10:32N 31°31' E 121°23'660667.4
2016-May-16 09:32N 23°01' E 113°32'66010600.9
2016-May-16 09:29N 31°31' E 121°23'59313.8
2016-May-16 09:17N 31°58' E 120°21'648871.3
2016-May-16 08:33N 23°01' E 113°32'66040247.1
2016-May-16 08:32N 31°31' E 121°23'660667.0
2016-May-16 07:32N 23°01' E 113°32'66060887.1
2016-May-16 07:32N 31°31' E 121°23'0 0.0
2016-May-16 06:32N 31°31' E 121°23'66053968.1
2016-May-16 06:31N 23°01' E 113°32'6482354.6
2016-May-16 06:14N 31°58' E 120°21'5983.4
2016-May-16 05:32N 31°31' E 121°23'6609779.8
2016-May-16 05:28N 23°01' E 113°31'  

Dump ship's entire track history